Eagle Valley, Nevada
Current Conditions -  °F | °C
As of 7:53 PM on Tuesday 27 Jan 2015 (Local Time) from KELY Reporting Station
Overcast Overcast  
Wind Chill: 28°   Ceiling: 3500
Heat Index: 37°   Visibility: 10mi
Dew Point: 34°   Wind: 15mph
Humidity: 89%   Direction: 200°SSW
Pressure: 30.22"   Gusts: NA
Location:  38.2635°N, 114.484°W
Report Text: KELY 280353Z AUTO 20013KT 10SM BKN035 OVC060 03/01 A3022 RMK AO2 RAB0256E15 SLP222 P0000 T00280011
Loading
Personal Weather Stations






























Interactive Weather Map New forecast layout! Learn more

10-Day Weather Forecast

Advertisements
Track Severe Weather on mobile